メインページ
METAR-TAF:

METAR-TAF

空港 :

ハーツフィールド・ジャクソン・アトランタ国際空港

アトランタ, ジョージア州, アメリカ合衆国

緯度: 33-38-25N, 経度: 084-25-37W, 海抜: 313m

現時点の気象観測

当レポートは34分前の18:52(UTC)に作成
西/北西の風 6kt、最大15ktの突風を伴う
気温 33°C
湿度 41%
気圧 1015 hPa
視程: 16.1km
高度6000ftの雲はほとんどない
高度15000ftの雲はほとんどない

METAR: KATL 181852Z 29006G15KT 10SM FEW060 FEW150 33/18 A2996 RMK AO2 SLP133 T03280183

時間: 15:26 (19:26 UTC)

予報

当レポートは1時間57分前の17:29(UTC)に作成
予報は18日の 18時(UTC)から 19日の 24時(UTC)まで有効
北西の風 8kt
視程: 10km
高度4500ftの雲はほとんどない
高度7000ftの雲はほとんどない
19日の 0200時(UTC)から
北西の風 4kt
視程: 10km
高度25000ftの雲はほとんどない
19日の 1100時(UTC)から
の風 4kt
視程: 10km
高度25000ftの雲はほとんどない
19日の 1400時(UTC)から
東/北東の風 4kt
視程: 10km
高度25000ftの雲はほとんどない

TAF: KATL 181729Z 1818/1924 32008KT P6SM FEW045 FEW070 FM190200 32004KT P6SM FEW250 FM191100 01004KT P6SM FEW250 FM191400 07004KT P6SM FEW250

4,000以上の空港の気象観測と天気予報(METAR報とTAF報)

利用可能な観測所は地図上に黄色い丸と赤い丸で示す。

丸の上にカーソルを重ねると観測所名を参照できる。

次にクリックすると気象観測と天気予報を参照できる。

マップの切り替え:黒色「×」印の緑ボタンをクリックして拡大、「-」印の緑ボタンをクリックして縮小、緑色の三角印をクリックして隣りの地図に切り替え


METAR-TAF: